< Typhoon 199016 1990 Season Typhoon 199018 >
Typhoon 199017 (DOT)
General InformationTrack Information on Google MapsDetailed Wind InformationList of All Images || Disaster Info.ResourceGoogle EarthGE AnimationAtom FeedGeoJSON
Detalied Best Track (Time Zone = UTC)
Year Month Day Hour Lat. Long. Pressure (hPa) Wind (kt) Class Image Chart
1990 9 3 00 17.2 142.8 1004 0 2 Image Chart
1990 9 3 06 16.6 142.3 1002 0 2 Image Chart
1990 9 3 12 15.6 141.6 1002 0 2 Image Chart
1990 9 3 18 14.7 140.7 1000 0 2 Image Chart
1990 9 4 00 14.3 139.8 998 35 3 Image Chart
1990 9 4 06 14.5 138.3 996 40 3 Image Chart
1990 9 4 12 14.2 137.5 994 40 3 Image Chart
1990 9 4 18 14.7 137.0 992 45 3 Image Chart
1990 9 5 00 15.8 136.2 990 45 3 Image Chart
1990 9 5 06 16.7 134.3 985 50 4 Image Chart
1990 9 5 12 17.8 132.7 980 55 4 Image Chart
1990 9 5 18 18.2 131.2 975 60 4 Image Chart
1990 9 6 00 18.9 129.8 970 65 5 Image Chart
1990 9 6 06 19.8 128.3 965 70 5 Image Chart
1990 9 6 12 20.3 126.7 960 75 5 Image Chart
1990 9 6 18 20.9 125.4 960 75 5 Image Chart
1990 9 7 00 21.8 124.1 960 75 5 Image Chart
1990 9 7 06 22.1 123.0 965 70 5 Image Chart
1990 9 7 12 23.0 121.9 970 65 5 Image Chart
1990 9 7 18 23.5 120.0 975 60 4 Image Chart
1990 9 8 00 23.5 119.0 980 55 4 Image Chart
1990 9 8 06 24.3 118.7 985 50 4 Image Chart
1990 9 8 12 24.4 117.2 990 40 3 Image Chart
1990 9 8 18 24.1 116.2 992 0 2 Image Chart
1990 9 9 00 24.0 116.0 994 0 2 Image Chart
1990 9 9 06 25.0 116.5 996 0 2 Image Chart
1990 9 9 12 26.0 116.0 998 0 2 Image Chart
1990 9 9 18 27.0 116.0 998 0 2 Image Chart
1990 9 10 00 28.0 116.0 1000 0 2 Image Chart
1990 9 10 06 28.5 116.0 1000 0 2 Image Chart
Japan Meteorological Agency Best Track Data | Correction Date : 1992-10-21
< Typhoon 199016 1990 Season Typhoon 199018 >

Help